Time;durP1;ratioP1;P1;durP2;ratioP2;P2;SDS_P1;SDS_P2;PMS_P1;PMS_P2;Temp;Humidity;BMP_temperature;BMP_pressure;BME280_temperature;BME280_humidity;BME280_pressure;Samples;Min_cycle;Max_cycle;Signal;HPM_P1;HPM_P2
2023/08/01 00:00:46;;;;;;;6.47;1.20;;;18.90;94.10;;;;;;5029154;28;20054;-81
2023/08/01 00:03:13;;;;;;;2.67;0.70;;;18.90;94.00;;;;;;5004511;28;20138;-81
2023/08/01 00:05:46;;;;;;;4.10;0.85;;;18.80;94.10;;;;;;4979565;28;20060;-81
2023/08/01 00:08:14;;;;;;;3.00;0.68;;;18.90;94.40;;;;;;5015447;28;20068;-81
2023/08/01 00:10:41;;;;;;;3.42;0.85;;;18.80;94.20;;;;;;4984296;28;20156;-81
2023/08/01 00:13:09;;;;;;;4.45;1.00;;;18.80;94.00;;;;;;4977756;28;20140;-81
2023/08/01 00:15:36;;;;;;;7.07;2.28;;;18.80;94.10;;;;;;5017050;28;20058;-81
2023/08/01 00:18:04;;;;;;;1.55;0.52;;;18.80;93.90;;;;;;5010068;28;20072;-81
2023/08/01 00:20:32;;;;;;;4.20;1.10;;;18.70;94.00;;;;;;4992270;28;20049;-81
2023/08/01 00:22:59;;;;;;;3.95;0.68;;;18.70;94.30;;;;;;4993828;28;20049;-81
2023/08/01 00:25:28;;;;;;;2.38;0.70;;;18.70;94.50;;;;;;5021939;28;20044;-81
2023/08/01 00:27:56;;;;;;;3.83;1.40;;;18.60;94.60;;;;;;5016270;28;20076;-81
2023/08/01 00:30:24;;;;;;;2.65;0.95;;;18.60;94.60;;;;;;5003600;28;20393;-81
2023/08/01 00:32:51;;;;;;;3.03;1.00;;;18.60;94.90;;;;;;4997668;28;20059;-81
2023/08/01 00:35:19;;;;;;;6.53;1.05;;;18.50;94.70;;;;;;5013089;28;20050;-81
2023/08/01 00:37:46;;;;;;;3.30;1.10;;;18.50;94.90;;;;;;4984124;28;20092;-81
2023/08/01 00:40:13;;;;;;;3.38;0.88;;;18.60;94.50;;;;;;5007267;28;20720;-81
2023/08/01 00:42:40;;;;;;;2.65;0.82;;;18.50;94.50;;;;;;4994728;28;20058;-81
2023/08/01 00:45:09;;;;;;;2.83;1.05;;;18.50;94.50;;;;;;4982081;28;20057;-81
2023/08/01 00:47:36;;;;;;;2.70;0.50;;;18.50;94.80;;;;;;4989797;28;20053;-81
2023/08/01 00:50:05;;;;;;;3.22;0.90;;;18.50;94.90;;;;;;5014704;28;20058;-81
2023/08/01 00:52:33;;;;;;;2.42;1.02;;;18.40;95.00;;;;;;5001134;28;20056;-81
2023/08/01 00:55:00;;;;;;;4.07;0.98;;;18.40;95.10;;;;;;5009733;28;20052;-81
2023/08/01 00:57:28;;;;;;;1.92;0.80;;;18.40;95.50;;;;;;4985438;28;20048;-81
2023/08/01 00:59:57;;;;;;;2.58;0.70;;;18.40;95.40;;;;;;5023912;28;20056;-81
2023/08/01 01:02:25;;;;;;;5.07;1.05;;;18.40;95.50;;;;;;5006904;28;20061;-81
2023/08/01 01:04:52;;;;;;;3.90;1.35;;;18.40;95.90;;;;;;5009571;28;22053;-81
2023/08/01 01:07:22;;;;;;;2.13;0.68;;;18.30;95.60;;;;;;5009578;28;20099;-81
2023/08/01 01:09:50;;;;;;;2.95;1.00;;;18.20;95.70;;;;;;4974992;28;20056;-81
2023/08/01 01:12:17;;;;;;;4.85;0.80;;;18.10;95.50;;;;;;4996765;28;22197;-81
2023/08/01 01:14:44;;;;;;;3.13;0.57;;;18.20;95.70;;;;;;5010266;28;20065;-81
2023/08/01 01:17:12;;;;;;;1.67;0.60;;;18.10;95.80;;;;;;4993114;28;22318;-81
2023/08/01 01:19:39;;;;;;;3.22;0.95;;;18.10;95.90;;;;;;5007896;28;20199;-81
2023/08/01 01:22:09;;;;;;;8.25;1.15;;;18.10;96.20;;;;;;4987639;28;20132;-81
2023/08/01 01:24:36;;;;;;;2.85;0.80;;;18.20;96.20;;;;;;4997281;28;20481;-81
2023/08/01 01:27:05;;;;;;;3.70;0.88;;;18.10;95.90;;;;;;5005057;28;20037;-81
2023/08/01 01:29:34;;;;;;;4.43;0.88;;;18.00;95.80;;;;;;5007522;28;20053;-81
2023/08/01 01:32:02;;;;;;;2.03;0.65;;;18.00;96.10;;;;;;5033971;28;20076;-81
2023/08/01 01:34:29;;;;;;;2.88;0.73;;;18.00;96.10;;;;;;5027821;28;20057;-81
2023/08/01 01:36:56;;;;;;;1.25;0.65;;;18.00;96.40;;;;;;4988700;28;20416;-81
2023/08/01 01:39:24;;;;;;;2.72;0.88;;;18.00;96.50;;;;;;4989151;28;20104;-81
2023/08/01 01:41:51;;;;;;;3.58;0.90;;;18.00;96.30;;;;;;5025707;28;20045;-81
2023/08/01 01:44:18;;;;;;;3.08;0.93;;;18.00;96.30;;;;;;4996474;28;20107;-81
2023/08/01 01:46:46;;;;;;;3.13;0.90;;;17.90;96.30;;;;;;4992868;28;20045;-81
2023/08/01 01:49:13;;;;;;;3.42;0.88;;;18.00;96.60;;;;;;4991650;28;20058;-81
2023/08/01 01:51:40;;;;;;;3.60;0.90;;;17.90;96.60;;;;;;4999155;28;20652;-81
2023/08/01 01:54:07;;;;;;;2.65;0.80;;;17.90;96.60;;;;;;4991604;28;20054;-81
2023/08/01 01:56:35;;;;;;;2.60;1.10;;;17.90;96.60;;;;;;5006625;28;20418;-81
2023/08/01 01:59:03;;;;;;;3.15;1.15;;;17.80;96.40;;;;;;4999009;28;20416;-81
2023/08/01 02:01:30;;;;;;;5.32;1.30;;;17.80;96.70;;;;;;5031632;28;20041;-81
2023/08/01 02:03:57;;;;;;;4.05;1.00;;;17.80;96.70;;;;;;5026700;28;20500;-81
2023/08/01 02:06:24;;;;;;;3.25;1.10;;;17.80;97.00;;;;;;4998286;28;20724;-80
2023/08/01 02:08:52;;;;;;;4.25;1.02;;;17.70;96.80;;;;;;5005164;28;20077;-81
2023/08/01 02:11:19;;;;;;;4.60;1.05;;;17.80;97.00;;;;;;5009508;28;20053;-81
2023/08/01 02:13:47;;;;;;;4.20;1.20;;;17.70;96.90;;;;;;5008360;28;20508;-81
2023/08/01 02:16:14;;;;;;;1.95;0.77;;;17.70;97.30;;;;;;4991809;28;20192;-81
2023/08/01 02:18:41;;;;;;;2.45;1.00;;;17.70;97.40;;;;;;4997903;28;20231;-81
2023/08/01 02:21:08;;;;;;;4.65;1.25;;;17.70;97.50;;;;;;5011763;28;20448;-81
2023/08/01 02:23:37;;;;;;;4.28;1.73;;;17.70;97.40;;;;;;5003770;28;20046;-81
2023/08/01 02:26:04;;;;;;;3.60;0.95;;;17.70;97.40;;;;;;5006463;28;20050;-81
2023/08/01 02:28:31;;;;;;;4.07;1.40;;;17.70;97.60;;;;;;4980743;28;20137;-81
2023/08/01 02:30:58;;;;;;;3.40;0.90;;;17.60;97.60;;;;;;5008458;28;20129;-81
2023/08/01 02:33:25;;;;;;;5.20;1.63;;;17.60;97.60;;;;;;5004614;28;20053;-81
2023/08/01 02:35:53;;;;;;;6.20;1.13;;;17.60;97.50;;;;;;4982662;28;20558;-81
2023/08/01 02:38:20;;;;;;;5.00;1.10;;;17.60;97.40;;;;;;5025010;28;20101;-81
2023/08/01 02:40:47;;;;;;;4.32;1.08;;;17.60;97.50;;;;;;4990161;28;20050;-81
2023/08/01 02:43:14;;;;;;;3.25;1.10;;;17.50;97.60;;;;;;5020014;28;20812;-80
2023/08/01 02:45:42;;;;;;;3.67;1.13;;;17.50;97.40;;;;;;4981021;28;20914;-81
2023/08/01 02:48:09;;;;;;;2.38;1.00;;;17.50;97.60;;;;;;5005335;28;20041;-81
2023/08/01 02:50:36;;;;;;;3.00;1.60;;;17.50;97.60;;;;;;4980461;28;20630;-81
2023/08/01 02:53:04;;;;;;;2.50;1.25;;;17.40;97.70;;;;;;5001060;28;20171;-81
2023/08/01 02:55:32;;;;;;;12.15;1.20;;;17.40;97.80;;;;;;4975564;28;20135;-81
2023/08/01 02:57:59;;;;;;;3.40;1.40;;;17.40;98.00;;;;;;5019423;28;20050;-81
2023/08/01 03:00:26;;;;;;;3.88;1.20;;;17.40;98.20;;;;;;5004607;28;20523;-81
2023/08/01 03:02:53;;;;;;;4.05;1.10;;;17.40;98.20;;;;;;4989641;28;20172;-81
2023/08/01 03:05:20;;;;;;;3.22;1.40;;;17.40;98.10;;;;;;4997303;28;20045;-81
2023/08/01 03:07:47;;;;;;;2.85;1.10;;;17.40;98.30;;;;;;4985356;28;20071;-81
2023/08/01 03:10:14;;;;;;;3.28;1.25;;;17.40;98.20;;;;;;4997297;28;20102;-81
2023/08/01 03:13:00;;;;;;;3.08;1.25;;;17.40;98.00;;;;;;4999657;28;20054;-81
2023/08/01 03:15:28;;;;;;;3.65;1.52;;;17.40;98.00;;;;;;5005563;28;20508;-81
2023/08/01 03:17:56;;;;;;;3.55;1.60;;;17.40;98.10;;;;;;5005131;28;20054;-81
2023/08/01 03:20:23;;;;;;;5.63;1.38;;;17.30;98.20;;;;;;5019077;28;20057;-81
2023/08/01 03:22:51;;;;;;;5.30;1.20;;;17.20;98.60;;;;;;5008079;28;20046;-81
2023/08/01 03:25:18;;;;;;;3.13;1.33;;;17.30;98.70;;;;;;4990785;28;20057;-81
2023/08/01 03:27:45;;;;;;;5.05;1.63;;;17.20;98.40;;;;;;5018880;28;20556;-81
2023/08/01 03:30:12;;;;;;;3.92;1.08;;;17.30;98.20;;;;;;4990201;28;22263;-81
2023/08/01 03:32:40;;;;;;;3.10;1.13;;;17.20;98.50;;;;;;4980385;28;20068;-81
2023/08/01 03:35:07;;;;;;;3.17;1.73;;;17.20;98.80;;;;;;5031705;28;20046;-81
2023/08/01 03:37:35;;;;;;;6.15;1.60;;;17.20;98.70;;;;;;5001763;28;20413;-81
2023/08/01 03:40:02;;;;;;;3.22;1.38;;;17.20;98.70;;;;;;5008763;28;20092;-81
2023/08/01 03:42:30;;;;;;;5.03;1.45;;;17.20;98.70;;;;;;4989711;28;20045;-81
2023/08/01 03:44:57;;;;;;;6.15;1.60;;;17.20;98.60;;;;;;4991383;28;20073;-81
2023/08/01 03:47:24;;;;;;;8.13;1.60;;;17.20;98.80;;;;;;5026328;28;20207;-81
2023/08/01 03:49:51;;;;;;;5.03;2.00;;;17.20;99.00;;;;;;5010247;28;20053;-81
2023/08/01 03:52:19;;;;;;;4.05;1.50;;;17.30;99.00;;;;;;5004568;28;20494;-81
2023/08/01 03:54:46;;;;;;;2.45;1.25;;;17.30;98.90;;;;;;5009941;28;20058;-81
2023/08/01 03:57:14;;;;;;;5.03;1.17;;;17.30;98.80;;;;;;5031075;28;20096;-81
2023/08/01 03:59:42;;;;;;;4.05;1.45;;;17.30;98.90;;;;;;4985013;28;20132;-81
2023/08/01 04:02:09;;;;;;;5.97;1.50;;;17.30;99.10;;;;;;4996160;28;20049;-81
2023/08/01 04:04:36;;;;;;;6.00;1.38;;;17.30;99.10;;;;;;4996004;28;20141;-81
2023/08/01 04:07:04;;;;;;;4.60;1.55;;;17.40;98.70;;;;;;5019302;28;20179;-81
2023/08/01 04:09:31;;;;;;;5.03;1.60;;;17.40;99.20;;;;;;5005399;28;20064;-81
2023/08/01 04:11:58;;;;;;;6.05;1.58;;;17.50;99.10;;;;;;5008742;28;20097;-81
2023/08/01 04:14:25;;;;;;;6.03;1.60;;;17.50;99.00;;;;;;5011504;28;20073;-81
2023/08/01 04:16:53;;;;;;;7.40;2.05;;;17.50;98.80;;;;;;5007379;28;22252;-81
2023/08/01 04:19:20;;;;;;;8.20;2.03;;;17.50;98.80;;;;;;5009044;28;20042;-81
2023/08/01 04:21:47;;;;;;;4.68;1.50;;;17.50;98.90;;;;;;4995484;28;20192;-81
2023/08/01 04:24:14;;;;;;;5.35;1.50;;;17.60;99.10;;;;;;5007345;28;20046;-81
2023/08/01 04:26:41;;;;;;;4.82;1.90;;;17.60;98.90;;;;;;5012441;28;20507;-81
2023/08/01 04:29:08;;;;;;;7.15;2.28;;;17.70;99.30;;;;;;5011092;28;20053;-81
2023/08/01 04:31:35;;;;;;;7.28;1.80;;;17.70;99.10;;;;;;5030310;28;20553;-81
2023/08/01 04:34:03;;;;;;;4.57;1.70;;;17.80;98.90;;;;;;4991273;28;20134;-81
2023/08/01 04:36:30;;;;;;;6.05;1.85;;;17.80;99.00;;;;;;5005403;28;20049;-81
2023/08/01 04:38:57;;;;;;;3.95;1.40;;;17.90;99.40;;;;;;5039403;28;20333;-81
2023/08/01 04:41:24;;;;;;;4.45;1.73;;;17.90;99.60;;;;;;5011972;28;20057;-81
2023/08/01 04:43:51;;;;;;;5.35;1.48;;;18.00;99.90;;;;;;5017068;28;20950;-81
2023/08/01 04:46:19;;;;;;;4.63;1.58;;;18.00;99.90;;;;;;5011853;28;20069;-81
2023/08/01 04:48:46;;;;;;;5.18;1.58;;;18.00;99.90;;;;;;5007523;28;20135;-81
2023/08/01 04:51:13;;;;;;;4.95;2.13;;;18.10;99.90;;;;;;4995634;28;22268;-81
2023/08/01 04:53:40;;;;;;;5.70;1.85;;;18.10;99.90;;;;;;5002331;28;20509;-81
2023/08/01 04:56:07;;;;;;;7.18;1.50;;;18.10;99.90;;;;;;5028884;28;20139;-81
2023/08/01 04:58:34;;;;;;;7.85;1.88;;;18.20;99.90;;;;;;4992445;28;20045;-81
2023/08/01 05:01:01;;;;;;;6.30;1.83;;;18.20;99.90;;;;;;5014173;28;20132;-81
2023/08/01 05:03:29;;;;;;;5.93;2.15;;;18.30;99.90;;;;;;5016542;28;20046;-81
2023/08/01 05:05:56;;;;;;;4.07;1.60;;;18.40;99.90;;;;;;4997565;28;20045;-81
2023/08/01 05:08:23;;;;;;;6.03;1.92;;;18.40;99.90;;;;;;4985732;28;20592;-81
2023/08/01 05:10:50;;;;;;;6.32;1.48;;;18.50;99.90;;;;;;5027047;28;20508;-81
2023/08/01 05:13:18;;;;;;;5.15;1.50;;;18.60;99.90;;;;;;5008919;28;20055;-81
2023/08/01 05:15:49;;;;;;;4.60;1.92;;;18.70;99.90;;;;;;5008416;28;22173;-81
2023/08/01 05:18:17;;;;;;;3.80;1.45;;;18.80;99.90;;;;;;5006490;28;20583;-81
2023/08/01 05:20:44;;;;;;;7.72;1.75;;;18.80;99.90;;;;;;5001880;28;20050;-81
2023/08/01 05:23:12;;;;;;;5.07;1.88;;;18.80;99.80;;;;;;4999241;28;20049;-81
2023/08/01 05:25:39;;;;;;;6.40;1.65;;;18.90;99.90;;;;;;5024052;28;20513;-81
2023/08/01 05:28:06;;;;;;;4.78;2.00;;;19.10;99.90;;;;;;4995237;28;20049;-80
2023/08/01 05:30:34;;;;;;;3.17;2.03;;;19.10;99.90;;;;;;5004549;28;20100;-81
2023/08/01 05:33:01;;;;;;;4.50;1.50;;;19.30;99.90;;;;;;4978225;28;20041;-80
2023/08/01 05:35:28;;;;;;;4.53;1.55;;;19.40;99.90;;;;;;4983536;28;20089;-80
2023/08/01 05:37:55;;;;;;;5.30;2.20;;;19.50;99.90;;;;;;4999628;28;20050;-81
2023/08/01 05:40:22;;;;;;;4.70;1.50;;;19.60;99.90;;;;;;4974897;28;21102;-81
2023/08/01 05:42:50;;;;;;;4.65;1.52;;;19.80;99.80;;;;;;4993513;28;20053;-81
2023/08/01 05:45:17;;;;;;;4.05;1.55;;;19.90;99.40;;;;;;5012500;28;20050;-81
2023/08/01 05:47:44;;;;;;;2.70;1.35;;;20.10;98.80;;;;;;5011371;28;20060;-81
2023/08/01 05:50:12;;;;;;;6.70;1.92;;;20.20;98.60;;;;;;5002598;28;20057;-81
2023/08/01 05:52:40;;;;;;;4.07;1.40;;;20.40;98.50;;;;;;4982361;28;20066;-81
2023/08/01 05:55:08;;;;;;;3.47;1.58;;;20.60;98.00;;;;;;4999989;28;20052;-81
2023/08/01 05:57:35;;;;;;;4.05;1.65;;;20.70;97.40;;;;;;4999460;28;20076;-81
2023/08/01 06:00:02;;;;;;;6.25;2.20;;;20.90;97.80;;;;;;5006048;28;20046;-81
2023/08/01 06:02:38;;;;;;;5.85;1.45;;;21.10;97.30;;;;;;4995581;28;20054;-80
2023/08/01 06:05:06;;;;;;;7.68;1.70;;;21.30;97.40;;;;;;5009360;28;20048;-80
2023/08/01 06:07:33;;;;;;;6.50;2.13;;;21.50;96.30;;;;;;4998062;28;20050;-81
2023/08/01 06:10:00;;;;;;;5.43;1.40;;;21.70;95.90;;;;;;5010798;28;20132;-81
2023/08/01 06:12:28;;;;;;;4.07;1.38;;;21.80;95.80;;;;;;5016800;28;20048;-81
2023/08/01 06:14:55;;;;;;;4.60;1.02;;;22.00;96.10;;;;;;4993576;28;20152;-81
2023/08/01 06:17:23;;;;;;;4.43;1.35;;;22.20;94.90;;;;;;5008149;28;20084;-80
2023/08/01 06:19:51;;;;;;;3.83;1.33;;;22.30;94.70;;;;;;5020253;28;20805;-79
2023/08/01 06:22:18;;;;;;;2.30;1.30;;;22.40;93.50;;;;;;4999315;28;20050;-79
2023/08/01 06:24:45;;;;;;;4.05;1.05;;;22.50;93.30;;;;;;5020925;28;20085;-79
2023/08/01 06:27:14;;;;;;;5.90;1.60;;;22.70;93.50;;;;;;4996798;28;20940;-80
2023/08/01 06:29:42;;;;;;;4.65;1.08;;;22.90;93.40;;;;;;4997213;28;20050;-80
2023/08/01 06:32:09;;;;;;;4.15;1.27;;;23.10;93.40;;;;;;5025097;28;20046;-79
2023/08/01 06:34:36;;;;;;;5.35;1.27;;;23.20;92.70;;;;;;4986859;28;20046;-80
2023/08/01 06:37:03;;;;;;;4.88;1.48;;;23.40;92.30;;;;;;5000533;28;20042;-80
2023/08/01 06:39:31;;;;;;;4.75;1.25;;;23.50;91.90;;;;;;4999238;28;21036;-80
2023/08/01 06:41:58;;;;;;;3.40;1.20;;;23.60;92.20;;;;;;4981678;28;20109;-79
2023/08/01 06:44:26;;;;;;;1.83;1.20;;;23.80;91.50;;;;;;5022679;28;20042;-80
2023/08/01 06:46:53;;;;;;;5.05;1.27;;;24.00;91.30;;;;;;5017108;28;20517;-80
2023/08/01 06:49:20;;;;;;;5.43;0.80;;;24.00;90.50;;;;;;5017121;28;20054;-80
2023/08/01 06:51:47;;;;;;;5.47;1.15;;;24.10;90.00;;;;;;4979651;28;20132;-81
2023/08/01 06:54:14;;;;;;;3.55;1.10;;;24.30;90.30;;;;;;4998957;28;20192;-80
2023/08/01 06:56:47;;;;;;;3.25;1.00;;;24.40;89.90;;;;;;5029552;28;20143;-80
2023/08/01 06:59:15;;;;;;;3.63;1.33;;;24.60;89.20;;;;;;5006167;28;20153;-80
2023/08/01 07:01:43;;;;;;;3.42;1.02;;;24.60;88.90;;;;;;4975440;28;20045;-81
2023/08/01 07:04:16;;;;;;;3.45;1.15;;;24.70;88.00;;;;;;5020714;28;20150;-81
2023/08/01 07:06:45;;;;;;;4.45;1.10;;;24.90;88.30;;;;;;5011183;28;20054;-82
2023/08/01 07:09:12;;;;;;;2.50;0.90;;;25.00;87.70;;;;;;4994472;28;20115;-81
2023/08/01 07:11:39;;;;;;;3.08;0.95;;;25.10;87.30;;;;;;5004424;28;20053;-82
2023/08/01 07:14:06;;;;;;;2.70;0.75;;;25.20;86.50;;;;;;4997038;28;20527;-82
2023/08/01 07:16:35;;;;;;;6.55;1.10;;;25.20;86.20;;;;;;4996550;28;20046;-81
2023/08/01 07:19:02;;;;;;;5.13;0.98;;;25.10;85.30;;;;;;4993207;28;20153;-81
2023/08/01 07:21:29;;;;;;;3.67;0.93;;;25.10;86.20;;;;;;5006894;28;20059;-80
2023/08/01 07:23:57;;;;;;;2.80;0.73;;;25.10;85.70;;;;;;5039052;28;20037;-81
2023/08/01 07:26:28;;;;;;;6.15;0.95;;;25.30;85.20;;;;;;5002575;28;20054;-81
2023/08/01 07:28:55;;;;;;;4.22;1.15;;;25.40;84.40;;;;;;4983036;28;20156;-80
2023/08/01 07:31:23;;;;;;;5.85;1.23;;;25.50;83.70;;;;;;5001355;28;20058;-81
2023/08/01 07:33:50;;;;;;;4.32;1.10;;;25.60;83.60;;;;;;5009321;28;20050;-80
2023/08/01 07:36:17;;;;;;;2.63;0.90;;;25.60;83.30;;;;;;5028796;28;21969;-84
2023/08/01 07:38:44;;;;;;;5.78;1.00;;;25.70;83.30;;;;;;5025702;28;20049;-83
2023/08/01 07:41:12;;;;;;;2.38;0.85;;;25.80;83.20;;;;;;4980111;28;20178;-80
2023/08/01 07:43:39;;;;;;;2.58;1.38;;;26.00;82.60;;;;;;4997410;28;20045;-81
2023/08/01 07:46:08;;;;;;;2.88;0.90;;;26.00;82.80;;;;;;5021818;28;20042;-82
2023/08/01 07:48:35;;;;;;;6.07;0.90;;;26.10;81.40;;;;;;5008980;28;20053;-80
2023/08/01 07:51:05;;;;;;;4.70;0.80;;;26.00;80.40;;;;;;4993039;28;20046;-79
2023/08/01 07:53:32;;;;;;;3.65;0.85;;;26.10;80.80;;;;;;5011246;28;20065;-82
2023/08/01 07:55:59;;;;;;;2.95;0.65;;;26.10;80.90;;;;;;5010525;28;20124;-81
2023/08/01 07:58:26;;;;;;;4.25;0.80;;;26.10;79.10;;;;;;5010736;28;20054;-82
2023/08/01 08:00:55;;;;;;;1.75;0.55;;;26.00;78.80;;;;;;5000641;28;20302;-83
2023/08/01 08:03:25;;;;;;;2.95;0.80;;;26.10;78.80;;;;;;5012912;28;20055;-81
2023/08/01 08:05:55;;;;;;;3.75;0.75;;;26.10;78.30;;;;;;5004161;28;20046;-82
2023/08/01 08:08:22;;;;;;;2.50;0.70;;;26.20;78.00;;;;;;4998917;28;22247;-81
2023/08/01 08:10:49;;;;;;;3.22;0.65;;;26.40;77.60;;;;;;4992035;28;20140;-82
2023/08/01 08:13:16;;;;;;;5.22;0.70;;;26.30;76.50;;;;;;4996947;28;20055;-81
2023/08/01 08:15:43;;;;;;;2.80;1.15;;;26.20;76.50;;;;;;4993162;28;20061;-81
2023/08/01 08:18:11;;;;;;;4.70;0.98;;;26.30;76.90;;;;;;4989267;28;20503;-82
2023/08/01 08:20:43;;;;;;;2.65;0.60;;;26.50;76.70;;;;;;5013927;28;20057;-83
2023/08/01 08:23:10;;;;;;;;;;;26.50;76.10;;;;;;4984546;28;22340;-84
2023/08/01 08:25:37;;;;;;;5.05;1.10;;;26.40;75.80;;;;;;4985955;28;20448;-81
2023/08/01 08:28:04;;;;;;;2.88;0.65;;;26.40;75.90;;;;;;5002544;28;20074;-82
2023/08/01 08:30:32;;;;;;;6.07;0.90;;;26.50;76.30;;;;;;5003301;28;20041;-80
2023/08/01 08:33:04;;;;;;;2.78;0.90;;;26.30;76.10;;;;;;5011164;28;20060;-83
2023/08/01 08:35:31;;;;;;;2.28;0.80;;;26.40;77.00;;;;;;5003979;28;20081;-80
2023/08/01 08:37:59;;;;;;;2.03;0.80;;;26.50;76.90;;;;;;5000531;28;20052;-82
2023/08/01 08:40:27;;;;;;;2.88;0.90;;;26.60;76.20;;;;;;4996963;28;20523;-83
2023/08/01 08:42:54;;;;;;;3.75;1.20;;;26.50;76.70;;;;;;5004993;28;20137;-81
2023/08/01 08:45:23;;;;;;;3.08;0.70;;;26.80;76.80;;;;;;4986450;28;20057;-80
2023/08/01 08:47:56;;;;;;;1.52;0.50;;;26.90;75.80;;;;;;5003545;28;20184;-80
2023/08/01 08:50:24;;;;;;;1.65;0.82;;;26.90;75.40;;;;;;5011385;28;20054;-79
2023/08/01 08:52:53;;;;;;;3.22;0.77;;;27.10;75.70;;;;;;5011589;28;20049;-82
2023/08/01 08:55:22;;;;;;;4.43;1.00;;;27.10;74.90;;;;;;5028062;28;20764;-80
2023/08/01 08:57:53;;;;;;;1.05;0.55;;;27.20;75.10;;;;;;5001595;28;20641;-83
2023/08/01 09:00:21;;;;;;;2.65;0.70;;;27.30;74.00;;;;;;5001030;28;20104;-81
2023/08/01 09:02:48;;;;;;;2.10;0.52;;;27.30;74.30;;;;;;5010649;28;20679;-80
2023/08/01 09:05:16;;;;;;;2.50;0.57;;;27.30;73.90;;;;;;4996328;28;20053;-83
2023/08/01 09:07:48;;;;;;;5.88;0.85;;;27.40;74.30;;;;;;5027780;28;20049;-83
2023/08/01 09:10:16;;;;;;;3.92;0.95;;;27.40;74.10;;;;;;5012684;28;20058;-81
2023/08/01 09:12:43;;;;;;;2.65;0.88;;;27.60;74.60;;;;;;5002412;28;20045;-80
2023/08/01 09:15:11;;;;;;;2.92;0.50;;;27.60;73.10;;;;;;5001331;28;20506;-81
2023/08/01 09:17:48;;;;;;;2.70;1.00;;;27.30;73.10;;;;;;5004796;28;20182;-81
2023/08/01 09:20:16;;;;;;;1.83;0.55;;;27.40;74.10;;;;;;5011487;28;20054;-81
2023/08/01 09:22:45;;;;;;;3.22;1.30;;;27.50;73.10;;;;;;5001205;28;20047;-82
2023/08/01 09:25:13;;;;;;;2.92;0.73;;;27.50;72.40;;;;;;4999360;28;20050;-82
2023/08/01 09:27:40;;;;;;;4.05;0.80;;;27.50;72.60;;;;;;5003529;28;20049;-80
2023/08/01 09:30:15;;;;;;;2.33;0.73;;;27.70;72.10;;;;;;5002491;28;20041;-80
2023/08/01 09:32:55;;;;;;;2.65;0.90;;;27.70;71.40;;;;;;5000042;28;20556;-81
2023/08/01 09:35:23;;;;;;;2.28;0.68;;;27.70;71.80;;;;;;5008107;28;22152;-80
2023/08/01 09:37:50;;;;;;;7.22;0.80;;;27.70;70.70;;;;;;5011399;28;20173;-82
2023/08/01 09:40:19;;;;;;;2.08;0.88;;;27.70;69.90;;;;;;4976678;28;22252;-81
2023/08/01 09:42:47;;;;;;;3.08;0.85;;;27.70;70.70;;;;;;4993493;28;20058;-81
2023/08/01 09:45:16;;;;;;;2.90;0.85;;;27.60;70.90;;;;;;5002288;28;20964;-82
2023/08/01 09:47:44;;;;;;;3.05;0.70;;;27.90;71.50;;;;;;4994034;28;20046;-83
2023/08/01 09:50:22;;;;;;;2.70;0.88;;;28.00;71.10;;;;;;5029935;28;20063;-79
2023/08/01 09:52:53;;;;;;;1.75;0.90;;;28.00;71.00;;;;;;5002862;28;20945;-81
2023/08/01 09:55:32;;;;;;;2.10;0.70;;;28.00;71.10;;;;;;5027274;28;20042;-80
2023/08/01 09:58:00;;;;;;;1.27;0.88;;;27.80;70.10;;;;;;5015223;28;20045;-81
2023/08/01 10:00:29;;;;;;;1.42;0.80;;;27.70;70.20;;;;;;5000012;28;20136;-82
2023/08/01 10:03:01;;;;;;;2.97;1.00;;;27.70;70.40;;;;;;5026894;28;20049;-81
2023/08/01 10:05:34;;;;;;;2.67;0.88;;;27.70;68.90;;;;;;4997405;28;20077;-80
2023/08/01 10:08:02;;;;;;;3.10;0.70;;;27.50;67.40;;;;;;5020989;28;20069;-82
2023/08/01 10:10:30;;;;;;;0.90;0.40;;;27.70;67.80;;;;;;4997018;28;20077;-81
2023/08/01 10:12:57;;;;;;;1.88;0.93;;;27.90;68.20;;;;;;4982300;28;20289;-83
2023/08/01 10:15:25;;;;;;;1.25;0.47;;;27.90;68.10;;;;;;5004646;28;20142;-81
2023/08/01 10:17:52;;;;;;;3.30;0.60;;;27.80;67.70;;;;;;5026181;28;20421;-83
2023/08/01 10:20:21;;;;;;;2.90;0.70;;;28.00;67.60;;;;;;5012190;28;20088;-82
2023/08/01 10:22:52;;;;;;;1.58;0.50;;;27.90;68.50;;;;;;4986030;28;20053;-83
2023/08/01 10:25:21;;;;;;;1.52;0.68;;;28.00;68.80;;;;;;5005011;28;20045;-81
2023/08/01 10:28:02;;;;;;;2.13;0.63;;;28.10;67.70;;;;;;5003988;28;20038;-82
2023/08/01 10:30:30;;;;;;;4.77;1.30;;;28.20;68.30;;;;;;4983678;28;20064;-82
2023/08/01 10:32:59;;;;;;;1.27;0.50;;;28.40;66.70;;;;;;5024058;28;20283;-83
2023/08/01 10:35:36;;;;;;;2.60;0.60;;;28.30;64.40;;;;;;5016349;28;20042;-81
2023/08/01 10:38:05;;;;;;;4.30;0.75;;;28.30;65.60;;;;;;5010517;28;20050;-80
2023/08/01 10:40:41;;;;;;;2.20;0.75;;;28.40;66.70;;;;;;5013717;28;20053;-80
2023/08/01 10:43:25;;;;;;;1.50;0.57;;;28.40;65.90;;;;;;5009397;28;20107;-83
2023/08/01 10:46:05;;;;;;;8.32;1.20;;;28.40;66.00;;;;;;5000842;28;20907;-82
2023/08/01 10:48:34;;;;;;;4.13;1.02;;;28.40;65.30;;;;;;5043112;28;20050;-82
2023/08/01 10:51:02;;;;;;;2.85;0.63;;;28.10;65.10;;;;;;4993116;28;20103;-81
2023/08/01 10:53:38;;;;;;;4.85;0.60;;;28.10;66.10;;;;;;5006308;28;20049;-81
2023/08/01 10:56:16;;;;;;;1.98;1.20;;;28.10;66.00;;;;;;5007409;28;20045;-80
2023/08/01 10:58:43;;;;;;;1.13;0.50;;;28.10;65.00;;;;;;5008093;28;20714;-82
2023/08/01 11:01:10;;;;;;;1.10;0.63;;;28.30;64.70;;;;;;4990194;28;20512;-82
2023/08/01 11:03:39;;;;;;;3.10;0.40;;;28.50;63.70;;;;;;5016919;28;20172;-83
2023/08/01 11:06:07;;;;;;;1.50;0.38;;;28.60;63.30;;;;;;5019052;28;20141;-82
2023/08/01 11:08:39;;;;;;;2.40;0.85;;;28.80;63.50;;;;;;5002033;28;20053;-79
2023/08/01 11:11:11;;;;;;;1.95;0.57;;;28.80;63.00;;;;;;4981521;28;20517;-80
2023/08/01 11:13:41;;;;;;;3.15;0.50;;;28.70;64.00;;;;;;5021369;28;20054;-84
2023/08/01 11:16:12;;;;;;;2.60;0.50;;;28.80;63.50;;;;;;5016944;28;20056;-83
2023/08/01 11:18:43;;;;;;;2.65;0.57;;;28.90;61.40;;;;;;5012530;28;20157;-83
2023/08/01 11:21:10;;;;;;;3.05;0.50;;;28.80;62.90;;;;;;5009358;28;20136;-81
2023/08/01 11:23:38;;;;;;;1.58;0.73;;;29.00;63.00;;;;;;4997374;28;20045;-82
2023/08/01 11:26:11;;;;;;;1.60;0.57;;;28.90;61.80;;;;;;5003571;28;20493;-83
2023/08/01 11:28:38;;;;;;;2.65;0.45;;;28.80;61.80;;;;;;4989488;28;20052;-82
2023/08/01 11:31:12;;;;;;;1.52;0.43;;;28.60;60.90;;;;;;4993828;28;20046;-82
2023/08/01 11:33:40;;;;;;;1.92;0.60;;;28.60;61.10;;;;;;5018534;28;20046;-81
2023/08/01 11:36:09;;;;;;;1.30;0.80;;;28.50;62.20;;;;;;5006169;28;20069;-78
2023/08/01 11:38:36;;;;;;;1.75;0.60;;;28.60;62.20;;;;;;4992822;28;20053;-82
2023/08/01 11:41:04;;;;;;;1.23;0.55;;;28.50;61.80;;;;;;5043790;28;20600;-82
2023/08/01 11:43:41;;;;;;;1.48;0.30;;;28.70;62.90;;;;;;4960236;28;20121;-82
2023/08/01 11:46:09;;;;;;;1.23;0.60;;;28.80;62.00;;;;;;4999895;28;20046;-79
2023/08/01 11:48:36;;;;;;;2.03;0.40;;;28.70;61.50;;;;;;4996165;28;20045;-82
2023/08/01 11:51:04;;;;;;;4.65;0.60;;;28.70;61.90;;;;;;5006470;28;20046;-81
2023/08/01 11:53:37;;;;;;;2.40;0.35;;;28.70;61.10;;;;;;5013819;28;20053;-80
2023/08/01 11:56:06;;;;;;;7.63;1.33;;;28.60;60.10;;;;;;5020790;28;20065;-84
2023/08/01 11:58:34;;;;;;;3.63;0.40;;;28.50;59.40;;;;;;5016121;28;20042;-79
2023/08/01 12:01:11;;;;;;;2.88;0.40;;;28.50;59.50;;;;;;4998683;28;20497;-79
2023/08/01 12:03:44;;;;;;;4.32;0.43;;;28.50;59.80;;;;;;5009219;28;20057;-80
2023/08/01 12:06:14;;;;;;;1.58;0.40;;;28.50;59.80;;;;;;5010936;28;20283;-80
2023/08/01 12:08:43;;;;;;;3.13;0.63;;;28.50;60.00;;;;;;5017076;28;20042;-81
2023/08/01 12:11:23;;;;;;;3.47;0.77;;;28.60;59.60;;;;;;5003666;28;20139;-81
2023/08/01 12:14:02;;;;;;;4.32;0.43;;;28.70;60.90;;;;;;5030649;28;20438;-81
2023/08/01 12:16:30;;;;;;;2.45;0.50;;;28.60;59.30;;;;;;5013015;28;20062;-81
2023/08/01 12:18:59;;;;;;;2.72;0.43;;;28.50;57.80;;;;;;5030312;28;20045;-84
2023/08/01 12:21:29;;;;;;;1.30;0.40;;;28.50;58.20;;;;;;5025198;28;20381;-82
2023/08/01 12:23:56;;;;;;;2.38;0.50;;;28.50;57.80;;;;;;5019758;28;20509;-80
2023/08/01 12:26:24;;;;;;;2.70;0.50;;;28.50;58.80;;;;;;5000187;28;20618;-81
2023/08/01 12:28:52;;;;;;;2.97;0.52;;;28.50;58.10;;;;;;4997292;28;20125;-80
2023/08/01 12:31:22;;;;;;;2.72;0.50;;;28.50;59.00;;;;;;5024037;28;20140;-82
2023/08/01 12:33:53;;;;;;;1.60;0.30;;;28.50;59.00;;;;;;5011223;28;20060;-82
2023/08/01 12:36:21;;;;;;;2.60;0.95;;;28.40;58.30;;;;;;5014450;28;20129;-84
2023/08/01 12:38:48;;;;;;;2.45;0.70;;;28.40;59.30;;;;;;5028954;28;20042;-81
2023/08/01 12:41:16;;;;;;;2.95;0.43;;;28.40;57.70;;;;;;4992667;28;20505;-81
2023/08/01 12:43:43;;;;;;;4.10;0.50;;;28.40;58.40;;;;;;5001468;28;20049;-82
2023/08/01 12:46:10;;;;;;;3.67;0.60;;;28.40;58.50;;;;;;5018591;28;20375;-83
2023/08/01 12:48:37;;;;;;;1.38;0.60;;;28.40;59.00;;;;;;5015790;28;20524;-83
2023/08/01 12:51:04;;;;;;;1.30;0.43;;;28.40;58.70;;;;;;5010136;28;20189;-81
2023/08/01 12:53:31;;;;;;;2.10;0.40;;;28.40;59.40;;;;;;5009070;28;20057;-82